Acopinalco, Mexico

2:28 PM CDT on July 20, 2017 (GMT -0500)
El Batan, CIMMYT | | Change Station

Elev 7448 ft 19.53 °N, 98.85 °W | Updated 3 minutes ago

Mostly Cloudy
Mostly Cloudy
72.8 °F
Feels Like 77 °F
N
1.0
Wind Variable Wind from North
Gusts 4.0 mph

Today
High -- | Low -- °F
--% Chance of Precip.
Yesterday
High -- | Low -- °F
Precip. -- in
Pressure 30.42 in
Visibility 6.0 miles
Clouds Few 2000 ft
Scattered Clouds 22000 ft
Heat Index 77 °F
Dew Point 55 °F
Humidity 53%
Rainfall 0.00 in
Snow Depth Not available.
7:05 AM 8:15 PM
Waning Crescent, 10% visible
METAR MMMX 201850Z 33002KT 6SM FEW020 SCT220 23/08 A3042 NOSIG RMK 8/204 HZY ISOL TCU AC
Pressure 30.42 in
Visibility 6.0 miles
Clouds Few 2000 ft
Scattered Clouds 22000 ft
Heat Index 77 °F
Dew Point 55 °F
Humidity 53%
Rainfall 0.00 in
Snow Depth Not available.
7:05 AM 8:15 PM
Waning Crescent, 10% visible
METAR MMMX 201850Z 33002KT 6SM FEW020 SCT220 23/08 A3042 NOSIG RMK 8/204 HZY ISOL TCU AC

Get Severe Weather Alerts

Thanks for signing up!

Be on the lookout for a verification email in your inbox.

You'll start receiving the daily forecast at 6 AM.

×

10-Day Weather Forecast

No radar image for this location.
×

Almanac

Astronomy

Jul. 20, 2017 Rise Set
Actual Time
Civil Twilight
Nautical Twilight
Astronomical Twilight
Moon
Length of Visible Light
Length of Day
Tomorrow will be .
, % of the Moon is Illuminated

Today's Extremes

Country Highs Country Lows

Community

WunderPhotos

Category 6

Welcome to Category 6. This is the collective home for Weather Underground's featured writeups by Dr. Jeff Masters (right), Bob Henson (left), Chris Burt, and other regular contributors.

Nearby

Air Quality

  Air Quality AQ Index Pollutant
Not available.

Snow Depth

Station Depth Elevation

Earthquake Activity

City Distance Mag. Time & Date
Minimum magnitude displayed is 2.5.

Coastal Water Temperatures

Place Temperature

Stations

Nearby Weather Stations

Station Location Temp. Windchill Dew Point Humidity Wind Precip. Elev Updated Type